createdAt,value
2022-08-05T00:00:23.768Z,28.14
2022-08-05T00:02:53.677Z,28.04
2022-08-05T00:06:02.582Z,27.93
2022-08-05T00:08:32.616Z,27.87
2022-08-05T00:11:01.399Z,27.78
2022-08-05T00:13:38.188Z,27.79
2022-08-05T00:16:08.469Z,27.71
2022-08-05T00:18:38.004Z,27.67
2022-08-05T00:21:06.891Z,27.66
2022-08-05T00:23:46.229Z,27.68
2022-08-05T00:26:22.666Z,27.64
2022-08-05T00:28:51.187Z,27.60
2022-08-05T00:31:53.350Z,27.59
2022-08-05T00:34:55.585Z,27.53
2022-08-05T00:37:12.726Z,27.49
2022-08-05T00:39:43.926Z,27.40
2022-08-05T00:42:34.520Z,27.38
2022-08-05T00:45:02.742Z,27.39
2022-08-05T00:47:53.105Z,27.38
2022-08-05T00:50:18.338Z,27.39
2022-08-05T00:52:48.779Z,27.38
2022-08-05T00:55:16.551Z,27.36
2022-08-05T00:57:55.380Z,27.36
2022-08-05T01:00:25.996Z,27.33
2022-08-05T01:02:53.981Z,27.31
2022-08-05T01:05:21.711Z,27.28
2022-08-05T01:08:41.598Z,27.26
2022-08-05T01:10:51.651Z,27.17
2022-08-05T01:13:27.555Z,27.17
2022-08-05T01:16:28.064Z,27.13
2022-08-05T01:19:07.393Z,27.08
2022-08-05T01:22:24.103Z,27.09
2022-08-05T01:25:13.593Z,27.08
2022-08-05T01:28:14.295Z,27.06
2022-08-05T01:30:53.526Z,27.01
2022-08-05T01:33:26.248Z,26.96
2022-08-05T01:35:57.983Z,26.92
2022-08-05T01:38:29.903Z,26.92
2022-08-05T01:41:01.448Z,26.88
2022-08-05T01:43:33.606Z,26.85
2022-08-05T01:46:07.543Z,26.78
2022-08-05T01:48:49.656Z,26.76
2022-08-05T01:51:19.775Z,26.81
2022-08-05T01:53:57.606Z,26.81
2022-08-05T01:58:29.946Z,26.83
2022-08-05T01:59:22.718Z,26.85
2022-08-05T02:01:55.562Z,26.82
2022-08-05T02:04:26.748Z,26.80
2022-08-05T02:06:54.781Z,26.81
2022-08-05T02:09:23.435Z,26.81
2022-08-05T02:12:00.420Z,26.78
2022-08-05T02:14:33.363Z,26.82
2022-08-05T02:17:07.994Z,26.79
2022-08-05T02:19:52.094Z,26.81
2022-08-05T02:22:26.986Z,26.79
2022-08-05T02:25:01.883Z,26.79
2022-08-05T02:27:57.908Z,26.74
2022-08-05T02:30:20.950Z,26.66
2022-08-05T02:32:52.281Z,26.61
2022-08-05T02:35:27.788Z,26.55
2022-08-05T02:37:59.099Z,26.50
2022-08-05T02:40:28.663Z,26.48
2022-08-05T02:42:57.902Z,26.44
2022-08-05T02:45:28.973Z,26.37
2022-08-05T02:48:18.631Z,26.34
2022-08-05T02:50:50.455Z,26.35
2022-08-05T02:53:20.854Z,26.39
2022-08-05T02:55:54.570Z,26.39
2022-08-05T02:58:28.907Z,26.36
2022-08-05T03:01:05.541Z,26.36
2022-08-05T03:04:02.633Z,26.32
2022-08-05T03:06:56.031Z,26.31
2022-08-05T03:09:15.827Z,26.26
2022-08-05T03:11:58.227Z,26.14
2022-08-05T03:14:26.759Z,26.10
2022-08-05T03:16:55.914Z,26.11
2022-08-05T03:19:33.763Z,26.15
2022-08-05T03:22:05.030Z,26.12
2022-08-05T03:24:46.909Z,25.97
2022-08-05T03:27:15.866Z,25.89
2022-08-05T03:29:45.520Z,25.85
2022-08-05T03:32:33.559Z,25.72
2022-08-05T03:35:01.599Z,25.62
2022-08-05T03:37:46.243Z,25.55
2022-08-05T03:40:15.440Z,25.51
2022-08-05T03:42:52.894Z,25.41
2022-08-05T03:45:23.415Z,25.41
2022-08-05T03:47:56.839Z,25.35
2022-08-05T03:50:26.451Z,25.25
2022-08-05T03:55:50.894Z,25.12
2022-08-05T03:56:11.407Z,25.04
2022-08-05T03:58:47.780Z,24.90
2022-08-05T04:01:22.306Z,24.85
2022-08-05T04:04:05.434Z,24.86
2022-08-05T04:06:38.489Z,24.87
2022-08-05T04:09:20.211Z,24.82
2022-08-05T04:11:53.704Z,24.80
2022-08-05T04:14:29.823Z,24.84
2022-08-05T04:17:00.282Z,24.80
2022-08-05T04:19:30.879Z,24.80
2022-08-05T04:22:08.670Z,24.76
2022-08-05T04:24:43.965Z,24.75
2022-08-05T04:27:13.093Z,24.73
2022-08-05T04:29:41.554Z,24.74
2022-08-05T04:32:10.745Z,24.70
2022-08-05T04:34:42.834Z,24.70
2022-08-05T04:37:11.187Z,24.69
2022-08-05T04:39:39.152Z,24.73
2022-08-05T04:42:09.090Z,24.75
2022-08-05T04:44:36.986Z,24.67
2022-08-05T04:47:09.777Z,24.62
2022-08-05T04:50:02.487Z,24.64
2022-08-05T04:52:28.342Z,24.63
2022-08-05T04:54:57.058Z,24.64
2022-08-05T04:57:28.806Z,24.65
2022-08-05T04:59:58.633Z,24.71
2022-08-05T05:02:37.739Z,24.73
2022-08-05T05:05:26.452Z,24.76
2022-08-05T05:08:01.217Z,24.76
2022-08-05T05:10:30.601Z,24.79
2022-08-05T05:13:03.658Z,24.84
2022-08-05T05:15:57.418Z,24.84
2022-08-05T05:18:31.123Z,24.86
2022-08-05T05:21:04.358Z,24.87
2022-08-05T05:24:02.252Z,24.91
2022-08-05T05:26:28.563Z,24.94
2022-08-05T05:29:01.081Z,25.00
2022-08-05T05:31:35.885Z,25.04
2022-08-05T05:34:02.512Z,25.06
2022-08-05T05:36:32.422Z,25.12
2022-08-05T05:39:03.751Z,25.16
2022-08-05T05:41:40.515Z,25.20
2022-08-05T05:44:35.525Z,25.20
2022-08-05T05:46:57.972Z,25.24
2022-08-05T05:49:26.097Z,25.19
2022-08-05T05:51:55.267Z,25.24
2022-08-05T05:54:50.289Z,25.26
2022-08-05T05:57:13.764Z,25.27
2022-08-05T05:59:47.251Z,25.33
2022-08-05T06:02:16.628Z,25.41
2022-08-05T06:04:44.737Z,25.44
2022-08-05T06:07:22.432Z,25.51
2022-08-05T06:10:00.579Z,25.56
2022-08-05T06:12:32.598Z,25.64
2022-08-05T06:15:02.333Z,25.68
2022-08-05T06:17:31.090Z,25.80
2022-08-05T06:19:59.606Z,25.89
2022-08-05T06:22:30.337Z,26.00
2022-08-05T06:25:01.892Z,26.15
2022-08-05T06:28:11.106Z,26.28
2022-08-05T06:30:37.404Z,26.42
2022-08-05T06:33:05.186Z,26.54
2022-08-05T06:36:07.410Z,26.66
2022-08-05T06:38:35.786Z,26.73
2022-08-05T06:41:05.377Z,26.77
2022-08-05T06:43:58.654Z,26.88
2022-08-05T06:46:23.594Z,26.91
2022-08-05T06:48:58.953Z,26.92
2022-08-05T06:51:29.955Z,26.92
2022-08-05T06:54:01.949Z,26.90
2022-08-05T06:56:34.104Z,26.91
2022-08-05T06:59:03.038Z,26.96
2022-08-05T07:01:31.934Z,27.00
2022-08-05T07:04:01.362Z,27.12
2022-08-05T07:06:30.274Z,27.12
2022-08-05T07:09:04.298Z,27.06
2022-08-05T07:11:33.184Z,27.07
2022-08-05T07:14:29.495Z,26.90
2022-08-05T07:18:01.238Z,26.80
2022-08-05T07:22:36.935Z,26.75
2022-08-05T07:25:22.869Z,26.68
2022-08-05T07:27:57.793Z,26.50
2022-08-05T07:30:31.914Z,26.28
2022-08-05T07:33:01.438Z,26.26
2022-08-05T07:36:01.694Z,26.17
2022-08-05T07:38:33.288Z,26.12
2022-08-05T07:42:09.441Z,26.11
2022-08-05T07:43:55.154Z,26.12
2022-08-05T07:46:26.348Z,26.11
2022-08-05T07:49:02.656Z,26.13
2022-08-05T07:51:37.371Z,26.11
2022-08-05T07:54:10.490Z,26.13
2022-08-05T07:57:01.676Z,26.12
2022-08-05T07:59:38.742Z,26.20
2022-08-05T08:02:15.459Z,26.12
2022-08-05T08:04:44.757Z,26.04
2022-08-05T08:07:13.138Z,26.00
2022-08-05T08:09:40.906Z,25.90
2022-08-05T08:12:27.321Z,25.91
2022-08-05T08:15:02.495Z,25.91
2022-08-05T08:17:31.735Z,26.00
2022-08-05T08:20:22.670Z,25.90
2022-08-05T08:22:52.484Z,25.90
2022-08-05T08:25:27.109Z,25.76
2022-08-05T08:28:18.376Z,25.60
2022-08-05T08:30:47.333Z,25.51
2022-08-05T08:33:16.029Z,25.50
2022-08-05T08:35:53.969Z,25.42
2022-08-05T08:38:35.653Z,25.43
2022-08-05T08:41:08.159Z,25.36
2022-08-05T08:45:18.291Z,25.34
2022-08-05T08:46:28.979Z,25.23
2022-08-05T08:49:06.077Z,25.16
2022-08-05T08:52:03.049Z,25.11
2022-08-05T08:54:36.544Z,25.14
2022-08-05T08:57:11.428Z,25.11
2022-08-05T08:59:47.205Z,25.12
2022-08-05T09:02:18.989Z,25.13
2022-08-05T09:05:16.024Z,25.17
2022-08-05T09:07:39.992Z,25.16
2022-08-05T09:10:27.865Z,25.26
2022-08-05T09:13:04.724Z,25.34
2022-08-05T09:15:37.069Z,25.46
2022-08-05T09:18:08.716Z,25.54
2022-08-05T09:20:38.209Z,25.60
2022-08-05T09:23:18.666Z,25.74
2022-08-05T09:26:03.663Z,25.91
2022-08-05T09:28:34.268Z,26.07
2022-08-05T09:31:43.490Z,26.27
2022-08-05T09:33:58.543Z,26.54
2022-08-05T09:36:45.747Z,26.67
2022-08-05T09:39:41.470Z,26.82
2022-08-05T09:42:17.490Z,27.10
2022-08-05T09:44:56.683Z,27.28
2022-08-05T09:47:36.515Z,27.38
2022-08-05T09:50:37.341Z,27.43
2022-08-05T09:53:06.782Z,27.57
2022-08-05T09:55:57.696Z,27.77
2022-08-05T09:58:26.791Z,28.00
2022-08-05T10:01:00.530Z,28.27
2022-08-05T10:03:56.520Z,28.46
2022-08-05T10:06:20.829Z,28.63
2022-08-05T10:08:50.428Z,28.76
2022-08-05T10:11:21.930Z,28.91
2022-08-05T10:13:54.516Z,29.03
2022-08-05T10:16:29.910Z,29.06
2022-08-05T10:18:59.380Z,29.08
2022-08-05T10:21:35.352Z,29.04
2022-08-05T10:24:11.041Z,28.94
2022-08-05T10:26:51.823Z,28.92
2022-08-05T10:29:23.490Z,28.87
2022-08-05T10:32:54.590Z,28.82
2022-08-05T10:34:41.719Z,28.79
2022-08-05T10:37:12.454Z,28.77
2022-08-05T10:40:03.376Z,28.75
2022-08-05T10:42:38.525Z,28.69
2022-08-05T10:45:23.242Z,28.64
2022-08-05T10:48:35.079Z,28.57
2022-08-05T10:51:21.824Z,28.70
2022-08-05T10:53:54.594Z,28.82
2022-08-05T10:56:25.920Z,28.88
2022-08-05T10:59:07.295Z,28.83
2022-08-05T11:01:55.033Z,28.82
2022-08-05T11:04:31.734Z,28.79
2022-08-05T11:07:08.967Z,28.82
2022-08-05T11:09:45.269Z,28.89
2022-08-05T11:12:54.244Z,29.04
2022-08-05T11:16:00.119Z,29.21
2022-08-05T11:18:27.187Z,29.31
2022-08-05T11:20:59.086Z,29.38
2022-08-05T11:24:05.601Z,29.50
2022-08-05T11:26:28.690Z,29.71
2022-08-05T11:29:11.665Z,29.79
2022-08-05T11:31:54.313Z,29.70
2022-08-05T11:34:40.191Z,29.75
2022-08-05T11:38:28.239Z,29.81
2022-08-05T11:41:34.851Z,30.04
2022-08-05T11:44:05.933Z,30.02
2022-08-05T11:46:37.848Z,29.99
2022-08-05T11:49:25.453Z,29.97
2022-08-05T11:51:54.319Z,29.98
2022-08-05T11:54:33.988Z,30.01
2022-08-05T11:57:08.196Z,30.20
2022-08-05T11:59:52.805Z,30.40
2022-08-05T12:02:31.603Z,30.61
2022-08-05T12:05:06.983Z,30.58
2022-08-05T12:08:09.296Z,30.60
2022-08-05T12:10:43.508Z,30.55
2022-08-05T12:13:18.872Z,30.70
2022-08-05T12:16:05.384Z,30.66
2022-08-05T12:18:49.489Z,30.69
2022-08-05T12:21:23.737Z,30.67
2022-08-05T12:24:06.782Z,30.80
2022-08-05T12:26:37.062Z,30.85
2022-08-05T12:29:09.660Z,30.83
2022-08-05T12:31:48.157Z,30.90
2022-08-05T12:34:23.762Z,30.93
2022-08-05T12:36:54.487Z,30.92
2022-08-05T12:39:23.718Z,30.83
2022-08-05T12:41:59.659Z,30.80
2022-08-05T12:44:33.726Z,30.93
2022-08-05T12:47:02.444Z,30.92
2022-08-05T12:50:04.252Z,30.89
2022-08-05T12:52:35.293Z,30.74
2022-08-05T12:55:22.362Z,30.72
2022-08-05T12:58:48.495Z,30.71
2022-08-05T13:02:03.859Z,30.60
2022-08-05T13:03:33.120Z,30.77
2022-08-05T13:06:02.554Z,30.92
2022-08-05T13:08:32.431Z,30.92
2022-08-05T13:11:01.687Z,30.90
2022-08-05T13:14:06.836Z,30.90
2022-08-05T13:16:20.537Z,31.09
2022-08-05T13:18:55.107Z,31.04
2022-08-05T13:21:27.850Z,31.14
2022-08-05T13:24:06.084Z,31.17
2022-08-05T13:26:37.119Z,31.21
2022-08-05T13:29:05.402Z,31.25
2022-08-05T13:32:04.524Z,31.12
2022-08-05T13:34:25.997Z,31.06
2022-08-05T13:36:54.681Z,31.02
2022-08-05T13:40:13.659Z,31.07
2022-08-05T13:42:13.939Z,31.09
2022-08-05T13:44:45.386Z,31.13
2022-08-05T13:47:36.017Z,31.19
2022-08-05T13:50:04.736Z,31.09
2022-08-05T13:52:35.526Z,31.09
2022-08-05T13:55:07.660Z,31.05
2022-08-05T13:57:51.622Z,31.02
2022-08-05T14:00:27.262Z,30.91
2022-08-05T14:02:57.440Z,30.88
2022-08-05T14:05:48.096Z,30.88
2022-08-05T14:08:21.178Z,30.91
2022-08-05T14:11:03.178Z,31.04
2022-08-05T14:13:43.964Z,30.92
2022-08-05T14:16:16.700Z,31.00
2022-08-05T14:18:46.476Z,30.90
2022-08-05T14:22:08.296Z,30.90
2022-08-05T14:24:02.010Z,30.86
2022-08-05T14:26:38.403Z,30.64
2022-08-05T14:29:15.971Z,30.49
2022-08-05T14:32:02.580Z,30.39
2022-08-05T14:34:35.336Z,30.22
2022-08-05T14:37:03.835Z,30.10
2022-08-05T14:39:49.691Z,30.03
2022-08-05T14:42:21.819Z,29.81
2022-08-05T14:44:50.171Z,29.38
2022-08-05T14:47:58.471Z,29.05
2022-08-05T14:50:18.344Z,28.58
2022-08-05T14:52:57.519Z,28.43
2022-08-05T14:55:38.638Z,28.12
2022-08-05T14:58:11.656Z,27.79
2022-08-05T15:00:58.840Z,27.76
2022-08-05T15:03:33.216Z,27.66
2022-08-05T15:06:07.784Z,27.54
2022-08-05T15:09:01.098Z,27.42
2022-08-05T15:11:51.292Z,27.10
2022-08-05T15:14:33.217Z,26.70
2022-08-05T15:17:04.141Z,26.59
2022-08-05T15:19:32.532Z,26.65
2022-08-05T15:22:02.053Z,26.78
2022-08-05T15:24:30.021Z,26.89
2022-08-05T15:26:58.530Z,26.91
2022-08-05T15:29:30.154Z,26.95
2022-08-05T15:32:02.993Z,26.96
2022-08-05T15:34:33.788Z,27.01
2022-08-05T15:37:06.793Z,26.99
2022-08-05T15:40:59.877Z,27.02
2022-08-05T15:42:54.051Z,26.99
2022-08-05T15:45:18.723Z,26.83
2022-08-05T15:47:50.925Z,26.78
2022-08-05T15:50:25.372Z,26.67
2022-08-05T15:52:55.701Z,26.61
2022-08-05T15:56:02.025Z,26.57
2022-08-05T15:58:16.473Z,26.39
2022-08-05T16:01:03.539Z,26.31
2022-08-05T16:03:32.737Z,26.31
2022-08-05T16:06:02.252Z,26.22
2022-08-05T16:08:31.560Z,26.02
2022-08-05T16:11:00.181Z,25.94
2022-08-05T16:13:34.502Z,25.83
2022-08-05T16:16:03.343Z,25.74
2022-08-05T16:18:32.715Z,25.74
2022-08-05T16:21:04.327Z,25.53
2022-08-05T16:23:53.934Z,25.44
2022-08-05T16:26:26.641Z,25.31
2022-08-05T16:28:55.229Z,25.30
2022-08-05T16:31:23.726Z,25.15
2022-08-05T16:33:53.595Z,25.07
2022-08-05T16:36:24.039Z,25.09
2022-08-05T16:38:55.700Z,25.04
2022-08-05T16:42:12.106Z,25.01
2022-08-05T16:44:13.838Z,24.99
2022-08-05T16:46:42.188Z,24.96
2022-08-05T16:49:23.958Z,24.95
2022-08-05T16:51:54.754Z,24.92
2022-08-05T16:54:31.862Z,24.96
2022-08-05T16:57:01.489Z,24.93
2022-08-05T16:59:30.613Z,24.86
2022-08-05T17:01:59.501Z,24.79
2022-08-05T17:04:29.067Z,24.78
2022-08-05T17:07:01.292Z,24.79
2022-08-05T17:09:57.721Z,24.71
2022-08-05T17:12:22.335Z,24.67
2022-08-05T17:15:08.541Z,24.61
2022-08-05T17:17:42.288Z,24.53
2022-08-05T17:20:14.920Z,24.40
2022-08-05T17:22:44.841Z,24.43
2022-08-05T17:25:33.810Z,24.30
2022-08-05T17:28:02.257Z,24.18
2022-08-05T17:30:30.513Z,24.23
2022-08-05T17:32:58.320Z,24.21
2022-08-05T17:35:26.152Z,24.19
2022-08-05T17:38:04.865Z,24.13
2022-08-05T17:40:34.275Z,24.17
2022-08-05T17:43:02.935Z,24.13
2022-08-05T17:45:38.560Z,24.16
2022-08-05T17:48:08.024Z,24.17
2022-08-05T17:50:36.142Z,24.15
2022-08-05T17:53:08.531Z,24.20
2022-08-05T17:55:39.975Z,24.19
2022-08-05T17:58:12.317Z,24.19
2022-08-05T18:00:44.742Z,24.18
2022-08-05T18:03:28.072Z,24.19
2022-08-05T18:06:05.656Z,24.20
2022-08-05T18:08:33.984Z,24.15
2022-08-05T18:11:03.838Z,24.15
2022-08-05T18:13:36.897Z,24.16
2022-08-05T18:16:13.677Z,24.16
2022-08-05T18:18:41.711Z,24.15
2022-08-05T18:21:19.933Z,24.14
2022-08-05T18:23:53.876Z,24.13
2022-08-05T18:26:27.538Z,24.06
2022-08-05T18:28:57.414Z,24.03
2022-08-05T18:31:25.933Z,24.03
2022-08-05T18:34:01.573Z,23.98
2022-08-05T18:36:29.865Z,24.01
2022-08-05T18:38:57.706Z,24.00
2022-08-05T18:41:58.406Z,23.99
2022-08-05T18:44:14.612Z,24.00
2022-08-05T18:47:01.305Z,24.03
2022-08-05T18:49:57.920Z,23.99
2022-08-05T18:52:41.347Z,24.00
2022-08-05T18:55:18.529Z,23.98
2022-08-05T18:57:52.826Z,23.93
2022-08-05T19:00:28.807Z,23.92
2022-08-05T19:03:03.649Z,23.90
2022-08-05T19:06:13.251Z,23.89
2022-08-05T19:08:21.524Z,23.85
2022-08-05T19:10:50.505Z,23.85
2022-08-05T19:13:19.970Z,23.85
2022-08-05T19:15:59.164Z,23.87
2022-08-05T19:18:28.669Z,23.85
2022-08-05T19:20:56.820Z,23.86
2022-08-05T19:24:05.166Z,23.77
2022-08-05T19:26:12.553Z,23.73
2022-08-05T19:28:43.379Z,23.73
2022-08-05T19:31:13.157Z,23.73
2022-08-05T19:33:48.419Z,23.70
2022-08-05T19:36:24.938Z,23.69
2022-08-05T19:38:54.202Z,23.65
2022-08-05T19:41:58.450Z,23.62
2022-08-05T19:44:13.472Z,23.59
2022-08-05T19:46:43.807Z,23.57
2022-08-05T19:49:16.516Z,23.58
2022-08-05T19:52:08.607Z,23.51
2022-08-05T19:54:34.640Z,23.48
2022-08-05T19:57:08.700Z,23.44
2022-08-05T20:00:01.619Z,23.40
2022-08-05T20:02:31.509Z,23.32
2022-08-05T20:04:59.883Z,23.29
2022-08-05T20:07:47.156Z,23.27
2022-08-05T20:10:17.222Z,23.26
2022-08-05T20:12:46.003Z,23.17
2022-08-05T20:15:48.077Z,23.08
2022-08-05T20:18:10.584Z,23.01
2022-08-05T20:20:55.931Z,22.95
2022-08-05T20:23:38.818Z,22.87
2022-08-05T20:26:15.192Z,22.77
2022-08-05T20:28:44.990Z,22.68
2022-08-05T20:31:14.189Z,22.61
2022-08-05T20:33:44.965Z,22.55
2022-08-05T20:36:14.265Z,22.53
2022-08-05T20:38:53.357Z,22.52
2022-08-05T20:41:23.890Z,22.46
2022-08-05T20:43:59.850Z,22.40
2022-08-05T20:46:32.285Z,22.37
2022-08-05T20:49:00.348Z,22.33
2022-08-05T20:51:30.512Z,22.32
2022-08-05T20:54:01.047Z,22.25
2022-08-05T20:56:32.882Z,22.21
2022-08-05T20:59:14.264Z,22.19
2022-08-05T21:01:51.639Z,22.11
2022-08-05T21:04:20.153Z,22.07
2022-08-05T21:06:47.987Z,22.06
2022-08-05T21:09:15.928Z,22.06
2022-08-05T21:12:09.512Z,21.97
2022-08-05T21:14:35.258Z,21.96
2022-08-05T21:17:05.948Z,21.88
2022-08-05T21:19:46.443Z,21.83
2022-08-05T21:22:18.310Z,21.81
2022-08-05T21:24:49.057Z,21.73
2022-08-05T21:27:20.630Z,21.66
2022-08-05T21:29:54.219Z,21.66
2022-08-05T21:32:27.073Z,21.63
2022-08-05T21:35:09.104Z,21.63
2022-08-05T21:37:53.058Z,21.56
2022-08-05T21:40:21.995Z,21.52
2022-08-05T21:42:51.864Z,21.53
2022-08-05T21:45:24.695Z,21.47
2022-08-05T21:47:57.844Z,21.43
2022-08-05T21:50:26.092Z,21.41
2022-08-05T21:52:58.896Z,21.33
2022-08-05T21:56:04.302Z,21.27
2022-08-05T21:58:20.283Z,21.24
2022-08-05T22:00:52.785Z,21.22
2022-08-05T22:03:52.034Z,21.14
2022-08-05T22:06:09.708Z,21.16
2022-08-05T22:08:37.513Z,21.16
2022-08-05T22:11:11.876Z,21.16
2022-08-05T22:14:05.595Z,21.09
2022-08-05T22:16:51.511Z,21.05
2022-08-05T22:20:02.125Z,20.99
2022-08-05T22:22:08.987Z,20.94
2022-08-05T22:24:55.898Z,20.93
2022-08-05T22:28:09.216Z,20.80
2022-08-05T22:30:35.215Z,20.84
2022-08-05T22:33:04.309Z,20.83
2022-08-05T22:35:49.192Z,20.83
2022-08-05T22:38:19.013Z,20.77
2022-08-05T22:40:50.051Z,20.76
2022-08-05T22:43:37.228Z,20.69
2022-08-05T22:46:23.567Z,20.67
2022-08-05T22:48:53.647Z,20.65
2022-08-05T22:52:06.567Z,20.62
2022-08-05T22:54:10.519Z,20.59
2022-08-05T22:56:40.088Z,20.65
2022-08-05T22:59:43.966Z,20.61
2022-08-05T23:02:06.096Z,20.59
2022-08-05T23:04:35.610Z,20.52
2022-08-05T23:07:05.335Z,20.45
2022-08-05T23:09:57.404Z,20.43
2022-08-05T23:12:24.473Z,20.40
2022-08-05T23:14:52.940Z,20.36
2022-08-05T23:17:34.368Z,20.37
2022-08-05T23:20:10.091Z,20.35
2022-08-05T23:22:47.224Z,20.33
2022-08-05T23:25:52.197Z,20.30
2022-08-05T23:28:07.186Z,20.32
2022-08-05T23:30:40.086Z,20.32
2022-08-05T23:33:22.245Z,20.30
2022-08-05T23:35:56.263Z,20.24
2022-08-05T23:38:26.128Z,20.22
2022-08-05T23:40:54.746Z,20.22
2022-08-05T23:43:37.343Z,20.18
2022-08-05T23:46:20.288Z,20.12
2022-08-05T23:49:00.036Z,20.11
2022-08-05T23:51:53.335Z,20.10
2022-08-05T23:54:25.161Z,20.06
2022-08-05T23:56:55.111Z,20.02
2022-08-05T23:59:27.707Z,20.00
